Time;durP1;ratioP1;P1;durP2;ratioP2;P2;SDS_P1;SDS_P2;PMS_P1;PMS_P2;Temp;Humidity;BMP_temperature;BMP_pressure;BME280_temperature;BME280_humidity;BME280_pressure;Samples;Min_cycle;Max_cycle;Signal;HPM_P1;HPM_P2
2023/04/28 00:01:16;;;;;;;10.75;4.60;;;;;;;6.24;100.00;97630.75;5114086;28;20410;-77
2023/04/28 00:03:42;;;;;;;12.60;3.97;;;;;;;6.23;100.00;97629.91;5096971;28;20043;-78
2023/04/28 00:06:08;;;;;;;8.80;4.88;;;;;;;6.22;100.00;97638.78;5096680;28;20607;-78
2023/04/28 00:08:33;;;;;;;9.43;4.50;;;;;;;6.15;100.00;97629.38;5113811;28;20020;-78
2023/04/28 00:10:59;;;;;;;8.55;4.78;;;;;;;6.13;100.00;97641.84;5096836;28;20124;-78
2023/04/28 00:13:25;;;;;;;7.72;4.30;;;;;;;6.14;100.00;97645.34;5096863;28;20031;-78
2023/04/28 00:15:53;;;;;;;10.18;4.40;;;;;;;6.08;100.00;97645.63;5113426;28;20482;-78
2023/04/28 00:18:20;;;;;;;9.45;4.72;;;;;;;6.03;100.00;97644.97;5096951;28;20020;-78
2023/04/28 00:20:45;;;;;;;8.57;4.82;;;;;;;6.00;100.00;97653.91;5096529;28;20110;-78
2023/04/28 00:23:11;;;;;;;7.97;4.40;;;;;;;6.02;100.00;97651.19;5096389;28;20054;-78
2023/04/28 00:25:36;;;;;;;10.63;4.53;;;;;;;5.98;100.00;97656.63;5096461;28;20015;-78
2023/04/28 00:28:02;;;;;;;9.30;5.13;;;;;;;5.94;100.00;97654.16;5096273;28;20432;-78
2023/04/28 00:30:29;;;;;;;8.27;5.15;;;;;;;5.85;100.00;97659.81;5113448;28;20030;-78
2023/04/28 00:32:54;;;;;;;9.73;5.40;;;;;;;5.92;100.00;97678.13;5096236;28;20027;-78
2023/04/28 00:35:20;;;;;;;9.43;5.55;;;;;;;5.87;100.00;97673.94;5096405;28;20443;-78
2023/04/28 00:37:46;;;;;;;16.48;6.07;;;;;;;5.81;100.00;97679.47;5096422;28;20372;-78
2023/04/28 00:40:12;;;;;;;9.43;5.53;;;;;;;5.75;100.00;97677.06;5113149;28;20032;-78
2023/04/28 00:42:37;;;;;;;9.88;5.50;;;;;;;5.80;100.00;97681.25;5096098;28;20027;-78
2023/04/28 00:45:04;;;;;;;10.65;5.47;;;;;;;5.74;100.00;97691.25;5112641;28;20521;-77
2023/04/28 00:47:32;;;;;;;11.20;6.00;;;;;;;5.70;100.00;97693.16;5095712;28;20019;-78
2023/04/28 00:49:58;;;;;;;14.20;5.28;;;;;;;5.73;100.00;97694.81;5096147;28;20087;-78
2023/04/28 00:52:24;;;;;;;10.50;5.10;;;;;;;5.63;100.00;97691.66;5112925;28;20027;-77
2023/04/28 00:54:49;;;;;;;8.63;4.65;;;;;;;5.65;100.00;97689.84;5095908;28;20034;-77
2023/04/28 00:57:15;;;;;;;10.50;5.88;;;;;;;5.63;100.00;97691.66;5113879;28;20024;-78
2023/04/28 00:59:40;;;;;;;11.25;4.70;;;;;;;5.47;100.00;97693.22;5095848;28;20034;-78
2023/04/28 01:02:07;;;;;;;9.70;4.50;;;;;;;5.27;100.00;97698.41;5095753;28;20085;-78
2023/04/28 01:04:32;;;;;;;9.63;5.07;;;;;;;5.05;100.00;97692.19;5095908;28;20041;-78
2023/04/28 01:06:59;;;;;;;9.07;4.68;;;;;;;5.05;100.00;97710.75;5112664;28;20023;-77
2023/04/28 01:09:25;;;;;;;10.65;4.30;;;;;;;4.91;100.00;97708.63;5095540;28;20027;-77
2023/04/28 01:11:50;;;;;;;7.45;4.32;;;;;;;4.78;100.00;97708.22;5095785;28;20023;-78
2023/04/28 01:14:16;;;;;;;13.45;4.15;;;;;;;4.70;100.00;97718.25;5112421;28;20094;-78
2023/04/28 01:16:42;;;;;;;9.77;4.43;;;;;;;4.61;100.00;97709.75;5095569;28;20644;-78
2023/04/28 01:19:13;;;;;;;15.25;4.70;;;;;;;4.56;100.00;97712.56;5112090;28;20020;-78
2023/04/28 01:21:38;;;;;;;9.57;5.13;;;;;;;4.51;100.00;97714.50;5113772;27;20023;-78
2023/04/28 01:24:05;;;;;;;8.35;4.50;;;;;;;4.48;100.00;97727.84;5112396;28;20094;-77
2023/04/28 01:26:30;;;;;;;9.95;4.45;;;;;;;4.47;100.00;97720.81;5112250;28;20039;-78
2023/04/28 01:28:56;;;;;;;10.75;4.60;;;;;;;4.33;100.00;97710.72;5111943;28;20044;-77
2023/04/28 01:31:21;;;;;;;9.25;4.75;;;;;;;4.29;100.00;97718.81;5112200;28;20430;-77
2023/04/28 01:33:47;;;;;;;7.30;4.43;;;;;;;4.27;100.00;97723.31;5112166;28;20031;-78
2023/04/28 01:36:12;;;;;;;9.48;4.35;;;;;;;4.26;100.00;97732.16;5094964;28;20057;-78
2023/04/28 01:38:38;;;;;;;8.18;4.38;;;;;;;4.31;100.00;97746.09;5112191;28;20012;-78
2023/04/28 01:41:03;;;;;;;8.50;4.50;;;;;;;4.31;100.00;97740.78;5095081;28;20020;-78
2023/04/28 01:43:29;;;;;;;10.15;4.57;;;;;;;4.24;100.00;97732.22;5094695;28;20493;-78
2023/04/28 01:45:55;;;;;;;9.20;4.28;;;;;;;4.21;100.00;97731.47;5095156;28;20106;-78
2023/04/28 01:48:20;;;;;;;7.72;3.92;;;;;;;4.12;100.00;97735.25;5095026;28;20031;-78
2023/04/28 01:50:46;;;;;;;9.23;4.50;;;;;;;4.15;100.00;97752.84;5111914;28;20027;-78
2023/04/28 01:53:12;;;;;;;11.85;5.10;;;;;;;4.01;100.00;97747.13;5111969;28;20488;-78
2023/04/28 01:55:38;;;;;;;8.48;4.43;;;;;;;4.06;100.00;97758.44;5094941;28;20031;-78
2023/04/28 01:58:04;;;;;;;9.98;4.32;;;;;;;3.95;100.00;97753.50;5110801;28;20035;-78
2023/04/28 02:00:29;;;;;;;8.90;4.40;;;;;;;3.76;100.00;97753.22;5094593;28;20402;-78
2023/04/28 02:02:55;;;;;;;6.15;4.10;;;;;;;3.66;100.00;97761.50;5094847;28;20108;-77
2023/04/28 02:05:20;;;;;;;5.70;3.67;;;;;;;3.57;100.00;97762.63;5094489;28;20041;-78
2023/04/28 02:07:46;;;;;;;12.20;3.97;;;;;;;3.47;100.00;97766.50;5111490;28;20119;-78
2023/04/28 02:10:11;;;;;;;6.88;4.43;;;;;;;3.45;100.00;97772.72;5094263;28;20033;-78
2023/04/28 02:12:37;;;;;;;11.10;4.45;;;;;;;3.39;100.00;97772.88;5111368;28;20027;-78
2023/04/28 02:15:03;;;;;;;8.50;4.25;;;;;;;3.41;100.00;97771.97;5094285;28;20024;-79
2023/04/28 02:17:30;;;;;;;10.68;3.95;;;;;;;3.47;100.00;97778.84;5111222;28;20027;-79
2023/04/28 02:19:55;;;;;;;11.75;4.80;;;;;;;3.49;100.00;97783.16;5094368;28;20478;-78
2023/04/28 02:22:21;;;;;;;8.52;4.63;;;;;;;3.57;100.00;97781.13;5094266;28;20092;-78
2023/04/28 02:24:47;;;;;;;8.25;4.65;;;;;;;3.66;100.00;97782.66;5094229;28;20076;-78
2023/04/28 02:27:12;;;;;;;7.03;4.05;;;;;;;3.67;100.00;97769.38;5094044;28;20086;-80
2023/04/28 02:29:38;;;;;;;10.35;4.57;;;;;;;3.58;100.00;97774.06;5093974;28;20039;-79
2023/04/28 02:32:04;;;;;;;17.00;5.28;;;;;;;3.63;100.00;97780.94;5111132;28;20028;-78
2023/04/28 02:34:29;;;;;;;14.98;6.78;;;;;;;3.73;100.00;97790.34;5094098;28;20035;-78
2023/04/28 02:36:55;;;;;;;12.95;6.72;;;;;;;3.73;100.00;97784.19;5094060;28;20028;-78
2023/04/28 02:39:21;;;;;;;11.20;5.97;;;;;;;3.75;100.00;97777.09;5110833;28;20027;-78
2023/04/28 02:41:47;;;;;;;11.25;4.88;;;;;;;3.81;100.00;97782.19;5093836;28;20116;-78
2023/04/28 02:44:12;;;;;;;10.85;6.13;;;;;;;3.83;100.00;97785.63;5094041;28;20035;-78
2023/04/28 02:46:38;;;;;;;18.88;5.75;;;;;;;3.89;100.00;97789.84;5110603;28;20054;-78
2023/04/28 02:49:03;;;;;;;10.60;4.60;;;;;;;3.92;100.00;97790.63;5093624;28;20024;-78
2023/04/28 02:51:30;;;;;;;12.27;5.30;;;;;;;3.89;100.00;97787.22;5110771;28;20077;-78
2023/04/28 02:53:55;;;;;;;17.10;7.72;;;;;;;3.90;100.00;97788.94;5110817;28;20076;-78
2023/04/28 02:56:21;;;;;;;8.45;5.38;;;;;;;3.90;100.00;97796.88;5110442;28;20032;-78
2023/04/28 02:58:46;;;;;;;10.48;5.13;;;;;;;3.92;100.00;97810.94;5110637;28;20027;-78
2023/04/28 03:01:12;;;;;;;14.52;6.68;;;;;;;3.95;100.00;97811.69;5093507;28;20092;-78
2023/04/28 03:03:37;;;;;;;11.82;5.55;;;;;;;3.97;100.00;97820.44;5110586;28;20038;-78
2023/04/28 03:06:03;;;;;;;10.35;5.55;;;;;;;3.97;100.00;97822.25;5110587;28;20023;-79
2023/04/28 03:08:28;;;;;;;11.80;5.57;;;;;;;3.96;100.00;97828.44;5093093;28;20110;-79
2023/04/28 03:10:54;;;;;;;15.18;6.00;;;;;;;3.97;100.00;97831.03;5093260;28;20024;-78
2023/04/28 03:13:19;;;;;;;21.25;7.82;;;;;;;3.90;100.00;97831.28;5093380;28;20172;-78
2023/04/28 03:15:45;;;;;;;24.70;8.90;;;;;;;3.83;100.00;97833.25;5111396;28;20039;-78
2023/04/28 03:18:11;;;;;;;29.77;10.90;;;;;;;3.84;100.00;97840.28;5110419;28;20415;-77
2023/04/28 03:20:36;;;;;;;31.63;10.52;;;;;;;3.78;100.00;97832.53;5110151;28;20032;-82
2023/04/28 03:23:02;;;;;;;15.70;7.85;;;;;;;3.80;100.00;97839.50;5092966;28;20050;-81
2023/04/28 03:25:28;;;;;;;20.67;8.80;;;;;;;3.73;100.00;97843.25;5110697;28;20110;-81
2023/04/28 03:27:53;;;;;;;19.27;9.52;;;;;;;3.73;100.00;97861.75;5093496;28;20514;-78
2023/04/28 03:30:20;;;;;;;29.92;8.77;;;;;;;3.68;100.00;97866.34;5112766;28;20483;-84
2023/04/28 03:32:46;;;;;;;15.27;6.72;;;;;;;3.62;100.00;97866.50;5111241;28;20062;-87
2023/04/28 03:35:11;;;;;;;11.25;5.80;;;;;;;3.63;100.00;97870.88;5110647;28;20023;-82
2023/04/28 03:37:37;;;;;;;17.10;6.18;;;;;;;3.55;100.00;97872.88;5111615;28;20019;-81
2023/04/28 03:40:03;;;;;;;11.70;6.20;;;;;;;3.53;100.00;97880.00;5094211;28;20090;-83
2023/04/28 03:42:28;;;;;;;14.55;6.13;;;;;;;3.52;100.00;97882.69;5095360;28;20024;-84
2023/04/28 03:44:54;;;;;;;13.48;6.72;;;;;;;3.54;100.00;97884.34;5110862;28;20031;-83
2023/04/28 03:47:19;;;;;;;12.07;6.72;;;;;;;3.61;100.00;97890.34;5093611;28;20395;-84
2023/04/28 03:49:45;;;;;;;14.93;6.70;;;;;;;3.60;100.00;97889.47;5110441;28;20024;-84
2023/04/28 03:52:10;;;;;;;9.70;5.47;;;;;;;3.72;100.00;97894.41;5094195;28;20032;-84
2023/04/28 03:54:36;;;;;;;9.30;5.57;;;;;;;3.70;100.00;97890.94;5111249;28;20023;-84
2023/04/28 03:57:03;;;;;;;13.60;5.88;;;;;;;3.72;100.00;97901.50;5093960;28;20042;-84
2023/04/28 03:59:29;;;;;;;18.67;5.85;;;;;;;3.67;100.00;97896.31;5094481;28;20080;-84
2023/04/28 04:01:54;;;;;;;18.58;6.25;;;;;;;3.64;100.00;97909.63;5111526;28;20024;-87
2023/04/28 04:04:20;;;;;;;15.00;5.57;;;;;;;4.17;100.00;97923.94;5111071;28;20031;-82
2023/04/28 04:06:45;;;;;;;13.20;6.28;;;;;;;4.75;100.00;97915.00;5093993;28;20039;-85
2023/04/28 04:09:11;;;;;;;12.65;6.18;;;;;;;5.47;100.00;97908.09;5105811;28;20066;-88
2023/04/28 04:11:36;;;;;;;12.60;5.28;;;;;;;5.70;100.00;97884.22;5111231;28;20035;-82
2023/04/28 04:14:02;;;;;;;11.57;5.18;;;;;;;5.54;100.00;97876.91;5109602;28;20031;-83
2023/04/28 04:16:28;;;;;;;9.85;5.88;;;;;;;5.15;100.00;97868.56;5110403;28;22565;-76
2023/04/28 04:18:53;;;;;;;16.20;6.07;;;;;;;4.83;100.00;97877.63;5106814;28;20024;-85
2023/04/28 04:21:19;;;;;;;13.20;5.10;;;;;;;4.85;100.00;97884.63;5110889;28;20039;-83
2023/04/28 04:23:44;;;;;;;10.50;5.75;;;;;;;4.93;100.00;97901.13;5096996;28;20031;-84
2023/04/28 04:26:10;;;;;;;13.73;5.50;;;;;;;4.85;100.00;97897.88;5113486;28;20035;-83
2023/04/28 04:28:35;;;;;;;12.80;5.18;;;;;;;4.82;100.00;97897.97;5112948;28;20118;-84
2023/04/28 04:31:02;;;;;;;16.20;6.03;;;;;;;4.80;100.00;97905.09;5096337;28;20062;-82
2023/04/28 04:33:27;;;;;;;14.52;6.97;;;;;;;4.76;100.00;97898.19;5096228;28;20030;-82
2023/04/28 04:35:53;;;;;;;11.40;5.70;;;;;;;4.86;100.00;97910.19;5095491;28;20031;-84
2023/04/28 04:38:19;;;;;;;12.23;6.13;;;;;;;4.87;100.00;97905.75;5112630;28;20104;-87
2023/04/28 04:40:44;;;;;;;17.58;6.60;;;;;;;4.89;100.00;97914.53;5114166;28;20032;-83
2023/04/28 04:43:10;;;;;;;11.90;6.22;;;;;;;4.97;100.00;97915.16;5095468;28;20039;-82
2023/04/28 04:45:35;;;;;;;23.35;10.27;;;;;;;5.00;100.00;97912.38;5112134;28;20055;-84
2023/04/28 04:48:01;;;;;;;25.33;10.88;;;;;;;5.13;100.00;97911.06;5095389;28;20035;-83
2023/04/28 04:50:27;;;;;;;16.45;6.85;;;;;;;5.21;100.00;97914.28;5096821;28;20478;-83
2023/04/28 04:52:55;;;;;;;17.33;6.15;;;;;;;5.24;100.00;97910.66;5096263;28;20028;-83
2023/04/28 04:55:21;;;;;;;15.13;7.65;;;;;;;5.43;100.00;97919.72;5113005;28;20031;-83
2023/04/28 04:57:46;;;;;;;20.13;7.70;;;;;;;5.48;100.00;97915.09;5114075;28;20011;-82
2023/04/28 05:00:12;;;;;;;12.73;6.22;;;;;;;5.74;100.00;97912.38;5113600;28;20471;-84
2023/04/28 05:02:38;;;;;;;13.65;6.53;;;;;;;5.91;100.00;97909.97;5114042;28;20081;-84
2023/04/28 05:05:05;;;;;;;12.27;5.78;;;;;;;5.99;100.00;97905.28;5114613;28;20029;-83
2023/04/28 05:07:30;;;;;;;14.02;5.63;;;;;;;6.17;100.00;97909.00;5113250;28;20038;-82
2023/04/28 05:09:56;;;;;;;17.05;5.65;;;;;;;6.10;100.00;97901.31;5113029;28;20024;-82
2023/04/28 05:12:21;;;;;;;15.23;6.63;;;;;;;6.26;100.00;97902.47;5096845;28;20508;-84
2023/04/28 05:14:47;;;;;;;10.43;5.82;;;;;;;6.53;100.00;97904.00;5113480;28;20028;-84
2023/04/28 05:17:12;;;;;;;15.60;6.10;;;;;;;6.64;100.00;97888.53;5113479;28;20106;-84
2023/04/28 05:19:38;;;;;;;9.23;6.07;;;;;;;6.98;100.00;97888.00;5112993;28;20076;-84
2023/04/28 05:22:03;;;;;;;13.45;6.18;;;;;;;7.16;100.00;97884.53;5113325;28;20398;-84
2023/04/28 05:24:29;;;;;;;12.63;6.20;;;;;;;7.50;100.00;97879.47;5096267;28;20028;-85
2023/04/28 05:26:57;;;;;;;13.93;7.47;;;;;;;8.07;100.00;97885.72;5112674;28;20108;-84
2023/04/28 05:29:23;;;;;;;22.63;7.93;;;;;;;9.39;100.00;97881.88;5096161;28;20019;-86
2023/04/28 05:31:48;;;;;;;11.52;6.53;;;;;;;11.22;90.62;97861.78;5095464;28;20375;-86
2023/04/28 05:34:14;;;;;;;13.55;6.22;;;;;;;12.92;74.52;97848.31;5113610;28;20111;-88
2023/04/28 05:36:40;;;;;;;11.65;6.50;;;;;;;12.92;66.30;97816.09;5112855;28;20414;-85
2023/04/28 05:39:06;;;;;;;14.80;6.60;;;;;;;13.26;64.69;97823.59;5113911;28;20007;-86
2023/04/28 05:41:31;;;;;;;27.23;12.63;;;;;;;14.09;59.55;97812.31;5112888;28;20030;-84
2023/04/28 05:43:57;;;;;;;68.93;34.35;;;;;;;14.08;56.99;97790.94;5096022;28;20114;-86
2023/04/28 05:46:22;;;;;;;18.05;7.60;;;;;;;13.28;57.78;97776.03;5095833;28;20091;-84
2023/04/28 05:48:48;;;;;;;16.90;5.15;;;;;;;14.15;56.54;97778.72;5095641;28;20100;-84
2023/04/28 05:51:13;;;;;;;10.68;5.47;;;;;;;13.93;56.66;97779.44;5096036;28;20482;-85
2023/04/28 05:53:39;;;;;;;9.23;5.22;;;;;;;15.72;53.38;97801.78;5096137;28;20031;-86
2023/04/28 05:56:05;;;;;;;15.80;5.88;;;;;;;16.42;49.12;97769.16;5096654;28;20513;-87
2023/04/28 05:58:31;;;;;;;14.82;5.28;;;;;;;16.33;48.15;97761.81;5113776;28;20027;-86
2023/04/28 06:00:57;;;;;;;8.65;5.25;;;;;;;16.76;48.61;97773.50;5097271;28;20039;-87
2023/04/28 06:03:22;;;;;;;10.75;5.43;;;;;;;18.09;45.34;97771.06;5113036;28;20124;-89
2023/04/28 06:05:48;;;;;;;13.25;5.00;;;;;;;18.12;44.74;97757.25;5113971;28;20050;-85
2023/04/28 06:08:14;;;;;;;8.18;4.07;;;;;;;18.42;43.96;97749.06;5112171;28;20023;-85
2023/04/28 06:10:58;;;;;;;12.68;5.00;;;;;;;18.06;43.26;97725.28;5112000;28;20034;-83
2023/04/28 06:13:23;;;;;;;10.65;5.32;;;;;;;16.95;44.46;97736.84;5112962;28;20031;-84
2023/04/28 06:15:49;;;;;;;16.10;4.93;;;;;;;17.61;43.87;97741.03;5094783;28;20024;-83
2023/04/28 06:18:15;;;;;;;8.73;4.30;;;;;;;17.41;44.30;97740.00;5111740;28;20216;-83
2023/04/28 06:20:41;;;;;;;5.68;3.70;;;;;;;17.84;43.04;97729.88;5112345;28;20064;-82
2023/04/28 06:23:07;;;;;;;4.72;3.65;;;;;;;16.84;43.23;97697.22;5112110;28;20027;-82
2023/04/28 06:25:34;;;;;;;8.07;3.40;;;;;;;16.99;43.19;97717.53;5094907;28;20129;-82
2023/04/28 06:27:59;;;;;;;8.02;3.90;;;;;;;17.88;42.21;97720.53;5094379;28;20587;-82
2023/04/28 06:30:25;;;;;;;5.50;3.70;;;;;;;17.73;40.98;97683.13;5111872;28;20051;-83
2023/04/28 06:32:51;;;;;;;13.00;4.05;;;;;;;18.54;41.16;97722.75;5094894;28;20114;-82
2023/04/28 06:35:16;;;;;;;11.80;4.07;;;;;;;19.52;39.76;97718.91;5094690;28;20025;-82
2023/04/28 06:37:42;;;;;;;5.75;3.55;;;;;;;18.46;40.57;97674.63;5111651;28;20028;-82
2023/04/28 06:40:08;;;;;;;6.05;4.00;;;;;;;17.71;41.26;97702.22;5111541;28;20538;-81
2023/04/28 06:42:34;;;;;;;10.07;4.35;;;;;;;18.23;40.61;97694.84;5094195;28;20122;-83
2023/04/28 06:44:59;;;;;;;8.73;3.60;;;;;;;19.13;39.92;97718.09;5110816;28;20070;-81
2023/04/28 06:47:25;;;;;;;13.07;4.32;;;;;;;18.93;39.82;97684.69;5094319;28;20027;-83
2023/04/28 06:49:51;;;;;;;7.07;3.50;;;;;;;20.44;38.26;97723.44;5094150;28;20384;-84
2023/04/28 06:52:16;;;;;;;22.05;10.88;;;;;;;20.73;37.25;97696.06;5110748;28;20023;-82
2023/04/28 06:54:42;;;;;;;7.90;4.10;;;;;;;21.57;36.03;97705.47;5094100;28;20031;-82
2023/04/28 06:57:08;;;;;;;9.55;3.38;;;;;;;20.62;35.57;97641.03;5110754;28;20433;-82
2023/04/28 06:59:33;;;;;;;8.77;4.03;;;;;;;18.85;38.65;97662.00;5094289;28;20015;-83
2023/04/28 07:01:59;;;;;;;7.68;3.70;;;;;;;20.41;37.30;97695.69;5093756;28;20043;-81
2023/04/28 07:04:26;;;;;;;13.73;5.00;;;;;;;21.01;36.81;97691.41;5094281;28;20088;-82
2023/04/28 07:06:51;;;;;;;3.40;2.20;;;;;;;22.00;32.53;97671.88;5094484;28;20487;-82
2023/04/28 07:09:17;;;;;;;5.82;3.30;;;;;;;21.77;32.08;97637.19;5110530;28;20039;-80
2023/04/28 07:11:43;;;;;;;7.38;2.88;;;;;;;21.28;32.83;97638.75;5111221;28;20035;-81
2023/04/28 07:14:08;;;;;;;7.05;4.00;;;;;;;20.51;33.17;97634.84;5110658;28;20061;-80
2023/04/28 07:16:34;;;;;;;6.10;2.53;;;;;;;21.25;32.99;97672.59;5110544;28;20062;-81
2023/04/28 07:19:00;;;;;;;9.50;2.70;;;;;;;21.76;32.38;97647.22;5110900;28;20038;-80
2023/04/28 07:21:27;;;;;;;9.45;4.78;;;;;;;22.29;31.90;97665.19;5110492;28;20024;-81
2023/04/28 07:23:55;;;;;;;6.72;3.35;;;;;;;21.75;31.55;97636.50;5093418;28;20027;-80
2023/04/28 07:26:21;;;;;;;6.13;2.40;;;;;;;22.74;29.51;97643.88;5110734;28;20019;-81
2023/04/28 07:28:47;;;;;;;5.90;2.40;;;;;;;23.06;28.44;97638.44;5093485;28;20395;-80
2023/04/28 07:31:13;;;;;;;5.53;2.33;;;;;;;22.27;28.94;97618.19;5110851;28;20038;-80
2023/04/28 07:33:38;;;;;;;3.85;2.25;;;;;;;23.16;28.97;97647.28;5110536;28;20129;-81
2023/04/28 07:36:04;;;;;;;10.10;2.58;;;;;;;23.96;28.54;97647.38;5110476;28;20034;-80
2023/04/28 07:38:30;;;;;;;3.85;2.30;;;;;;;24.37;27.61;97645.31;5093605;28;20469;-81
2023/04/28 07:40:55;;;;;;;4.60;2.47;;;;;;;24.92;27.49;97650.69;5110349;28;20047;-80
2023/04/28 07:43:21;;;;;;;3.85;2.03;;;;;;;24.36;27.56;97616.31;5093214;28;20057;-81
2023/04/28 07:45:48;;;;;;;5.35;2.50;;;;;;;24.12;27.79;97609.06;5110008;28;20050;-80
2023/04/28 07:48:14;;;;;;;7.18;2.42;;;;;;;22.47;29.59;97608.69;5093974;28;20494;-81
2023/04/28 07:50:40;;;;;;;3.38;2.13;;;;;;;22.70;28.77;97606.19;5094270;28;20489;-81
2023/04/28 07:53:06;;;;;;;4.35;2.25;;;;;;;21.46;29.64;97576.94;5093638;28;20031;-81
2023/04/28 07:55:31;;;;;;;3.92;2.13;;;;;;;22.46;29.32;97623.31;5095493;28;20019;-81
2023/04/28 07:57:57;;;;;;;6.05;2.58;;;;;;;22.87;29.16;97632.47;5097572;28;20155;-80
2023/04/28 08:00:23;;;;;;;5.25;2.67;;;;;;;24.30;27.69;97655.31;5097549;28;20471;-81
2023/04/28 08:02:49;;;;;;;5.32;1.95;;;;;;;25.27;27.11;97678.31;5114615;28;20024;-81
2023/04/28 08:05:15;;;;;;;3.92;2.30;;;;;;;24.80;26.93;97620.09;5089242;28;20020;-81
2023/04/28 08:07:41;;;;;;;8.05;2.42;;;;;;;25.34;26.29;97640.06;5113910;28;20027;-80
2023/04/28 08:10:09;;;;;;;6.40;2.30;;;;;;;26.00;26.19;97649.34;5114235;28;20027;-81
2023/04/28 08:12:37;;;;;;;6.32;2.17;;;;;;;25.96;26.29;97623.34;5097496;28;20478;-81
2023/04/28 08:15:04;;;;;;;3.88;2.40;;;;;;;25.48;26.65;97606.38;5097337;28;20062;-82
2023/04/28 08:17:32;;;;;;;7.47;2.53;;;;;;;24.75;27.65;97606.13;5098094;28;20399;-82
2023/04/28 08:20:00;;;;;;;4.18;2.00;;;;;;;24.46;27.81;97592.28;5097666;28;20083;-80
2023/04/28 08:22:25;;;;;;;10.20;2.85;;;;;;;22.54;29.72;97555.19;5089221;28;20030;-82
2023/04/28 08:24:54;;;;;;;6.53;2.40;;;;;;;24.04;29.34;97620.84;5114768;28;20027;-83
2023/04/28 08:27:24;;;;;;;4.70;2.40;;;;;;;24.30;28.18;97593.25;5106218;28;20043;-81
2023/04/28 08:30:08;;;;;;;4.35;2.33;;;;;;;24.67;28.00;97612.50;5094539;28;20066;-80
2023/04/28 08:32:39;;;;;;;6.32;2.13;;;;;;;25.32;27.54;97609.25;5091023;28;20032;-82
2023/04/28 08:35:05;;;;;;;5.30;2.30;;;;;;;26.37;26.18;97628.16;5097881;28;20102;-81
2023/04/28 08:37:31;;;;;;;5.18;2.75;;;;;;;26.96;25.52;97624.41;5096978;28;20061;-81
2023/04/28 08:40:01;;;;;;;4.63;2.17;;;;;;;27.56;25.53;97640.44;5114275;28;20027;-82
2023/04/28 08:42:32;;;;;;;5.45;2.40;;;;;;;26.76;26.11;97594.00;5114014;28;20027;-81
2023/04/28 08:44:58;;;;;;;5.07;2.38;;;;;;;26.34;26.02;97559.97;5113839;28;20434;-79
2023/04/28 08:47:33;;;;;;;3.33;2.22;;;;;;;25.55;26.84;97557.19;5096190;28;20027;-82
2023/04/28 08:50:03;;;;;;;5.15;2.30;;;;;;;26.23;26.32;97570.59;5113540;28;20046;-81
2023/04/28 08:52:29;;;;;;;4.50;2.22;;;;;;;24.97;27.39;97517.72;5113071;28;20020;-81
2023/04/28 08:54:56;;;;;;;4.15;2.38;;;;;;;24.96;27.25;97531.56;5096069;28;20083;-80
2023/04/28 08:57:21;;;;;;;3.88;2.50;;;;;;;23.26;29.08;97507.91;5095812;28;20078;-79
2023/04/28 08:59:47;;;;;;;5.18;2.17;;;;;;;24.72;27.36;97538.09;5112738;28;20479;-80
2023/04/28 09:02:12;;;;;;;4.72;2.10;;;;;;;25.28;26.93;97542.22;5095614;28;20165;-81
2023/04/28 09:04:38;;;;;;;5.65;2.20;;;;;;;25.76;26.29;97546.31;5114053;28;20026;-82
2023/04/28 09:07:09;;;;;;;5.35;2.58;;;;;;;27.08;26.43;97593.47;5095373;28;20028;-82
2023/04/28 09:09:35;;;;;;;6.53;2.60;;;;;;;27.20;25.30;97550.69;5113011;28;20020;-82
2023/04/28 09:12:02;;;;;;;19.52;4.43;;;;;;;26.26;26.86;97531.78;5096459;28;20054;-81
2023/04/28 09:14:30;;;;;;;6.43;2.45;;;;;;;26.93;25.85;97546.88;5113028;28;20046;-82
2023/04/28 09:16:55;;;;;;;3.33;2.03;;;;;;;27.35;24.24;97529.47;5095300;28;20204;-81
2023/04/28 09:19:21;;;;;;;8.73;3.10;;;;;;;25.70;26.07;97492.25;5095192;28;20548;-80
2023/04/28 09:21:54;;;;;;;7.10;2.70;;;;;;;26.24;25.88;97512.78;5112691;28;20023;-80
2023/04/28 09:24:35;;;;;;;9.20;2.30;;;;;;;26.62;25.28;97507.06;5095459;28;20098;-81
2023/04/28 09:27:03;;;;;;;5.38;2.30;;;;;;;26.39;25.48;97513.56;5095248;28;20521;-80
2023/04/28 09:29:29;;;;;;;3.72;2.25;;;;;;;27.57;24.97;97523.91;5095259;28;20121;-81
2023/04/28 09:32:15;;;;;;;3.80;2.20;;;;;;;27.90;24.39;97528.53;5112678;28;20024;-81
2023/04/28 09:34:46;;;;;;;5.55;2.28;;;;;;;25.72;25.80;97468.25;5095377;28;20022;-81
2023/04/28 09:37:15;;;;;;;5.18;2.20;;;;;;;26.21;25.19;97485.72;5112106;28;20103;-81
2023/04/28 09:39:45;;;;;;;3.20;2.38;;;;;;;26.78;25.12;97490.31;5095023;28;20027;-82
2023/04/28 09:42:29;;;;;;;7.85;2.60;;;;;;;27.27;24.75;97499.41;5095419;28;20036;-80
2023/04/28 09:44:56;;;;;;;4.50;2.35;;;;;;;26.69;24.73;97472.28;5112229;28;20031;-81
2023/04/28 09:47:22;;;;;;;3.45;2.28;;;;;;;25.90;25.83;97465.13;5095235;28;20031;-81
2023/04/28 09:49:55;;;;;;;11.23;5.82;;;;;;;27.10;24.97;97486.19;5112262;28;20036;-81
2023/04/28 09:52:22;;;;;;;3.60;1.92;;;;;;;26.86;25.45;97465.47;5112057;28;20097;-81
2023/04/28 09:54:49;;;;;;;6.18;2.65;;;;;;;27.69;25.00;97486.56;5112140;28;20109;-81
2023/04/28 09:57:17;;;;;;;4.03;2.42;;;;;;;27.75;24.59;97474.75;5111965;28;20067;-81
2023/04/28 09:59:46;;;;;;;7.18;2.40;;;;;;;28.56;24.13;97492.19;5111941;28;20022;-80
2023/04/28 10:02:18;;;;;;;8.25;2.45;;;;;;;28.89;23.60;97490.31;5112239;28;20055;-80
2023/04/28 10:04:44;;;;;;;3.90;2.60;;;;;;;29.08;23.72;97481.22;5095252;28;20034;-81
2023/04/28 10:07:15;;;;;;;3.42;2.30;;;;;;;28.15;23.61;97465.63;5094546;28;20035;-81
2023/04/28 10:09:46;;;;;;;7.25;2.35;;;;;;;29.38;22.96;97490.75;5094295;28;20027;-80
2023/04/28 10:12:22;;;;;;;3.17;2.28;;;;;;;27.71;23.75;97430.34;5094934;28;20097;-80
2023/04/28 10:14:49;;;;;;;4.75;2.30;;;;;;;27.98;24.41;97447.78;5094722;28;20126;-82
2023/04/28 10:17:16;;;;;;;3.63;2.13;;;;;;;28.05;23.47;97442.31;5094367;28;20031;-81
2023/04/28 10:19:43;;;;;;;2.63;1.90;;;;;;;29.12;23.51;97456.84;5092950;28;20421;-80
2023/04/28 10:22:28;;;;;;;5.25;1.80;;;;;;;29.25;23.05;97457.72;5110746;28;20038;-82
2023/04/28 10:25:05;;;;;;;5.80;2.00;;;;;;;27.60;24.03;97421.81;5111120;28;20016;-80
2023/04/28 10:27:32;;;;;;;4.05;2.30;;;;;;;27.74;23.52;97423.56;5110867;28;20043;-79
2023/04/28 10:30:20;;;;;;;5.72;1.92;;;;;;;26.71;24.39;97416.13;5093897;28;20062;-79
2023/04/28 10:32:46;;;;;;;3.72;2.15;;;;;;;27.81;24.04;97438.22;5110603;28;20027;-79
2023/04/28 10:35:21;;;;;;;3.65;2.05;;;;;;;29.31;23.19;97456.88;5093778;28;20478;-80
2023/04/28 10:38:11;;;;;;;3.47;2.25;;;;;;;29.61;21.88;97439.81;5110581;28;20482;-79
2023/04/28 10:40:40;;;;;;;2.80;1.70;;;;;;;29.47;22.85;97452.81;5111156;28;20023;-79
2023/04/28 10:43:07;;;;;;;4.72;2.55;;;;;;;29.01;22.98;97434.38;5093875;28;20039;-80
2023/04/28 10:45:51;;;;;;;6.20;2.60;;;;;;;29.36;23.17;97432.25;5093949;28;20084;-79
2023/04/28 10:48:38;;;;;;;6.40;2.53;;;;;;;29.40;22.57;97422.50;5111947;28;20084;-79
2023/04/28 10:51:23;;;;;;;10.95;4.50;;;;;;;30.81;22.20;97453.63;5101112;28;20051;-79
2023/04/28 10:53:49;;;;;;;5.70;3.03;;;;;;;29.48;22.84;97413.97;5106529;28;20019;-80
2023/04/28 10:56:24;;;;;;;3.95;2.85;;;;;;;30.94;22.07;97450.75;5112055;28;20031;-80
2023/04/28 10:58:54;;;;;;;3.85;2.22;;;;;;;30.88;21.39;97418.50;5112285;28;20390;-80
2023/04/28 11:01:23;;;;;;;3.33;2.10;;;;;;;26.76;23.84;97366.16;5110352;28;20182;-80
2023/04/28 11:04:01;;;;;;;7.45;4.40;;;;;;;29.43;22.46;97413.78;5110581;28;20031;-81
2023/04/28 11:06:31;;;;;;;9.75;6.00;;;;;;;30.36;22.15;97417.81;5111156;28;20036;-80
2023/04/28 11:09:01;;;;;;;29.67;12.65;;;;;;;30.55;22.00;97413.22;5105053;28;20031;-79
2023/04/28 11:11:35;;;;;;;3.05;2.42;;;;;;;29.31;22.67;97389.84;5110886;28;20028;-80
2023/04/28 11:14:16;;;;;;;6.32;2.72;;;;;;;30.18;21.31;97392.84;5087486;28;20016;-78
2023/04/28 11:17:03;;;;;;;2.60;1.50;;;;;;;28.45;22.69;97367.03;5108725;28;20035;-75
2023/04/28 11:19:28;;;;;;;5.78;2.53;;;;;;;28.17;23.04;97375.50;5108021;28;20489;-77
2023/04/28 11:21:55;;;;;;;4.40;2.70;;;;;;;28.97;23.06;97372.53;5107988;28;20027;-80
2023/04/28 11:24:26;;;;;;;7.82;2.40;;;;;;;27.31;23.66;97356.97;5107938;28;20570;-81
2023/04/28 11:26:52;;;;;;;7.75;2.70;;;;;;;27.21;24.35;97368.34;5091096;28;20038;-80
2023/04/28 11:29:17;;;;;;;5.97;2.10;;;;;;;26.15;24.44;97337.53;5107194;28;20048;-80